Time;durP1;ratioP1;P1;durP2;ratioP2;P2;SDS_P1;SDS_P2;PMS_P1;PMS_P2;Temp;Humidity;BMP_temperature;BMP_pressure;BME280_temperature;BME280_humidity;BME280_pressure;Samples;Min_cycle;Max_cycle;Signal;HPM_P1;HPM_P2
2021/09/26 00:00:44;;;;;;;14.38;8.40;;;384.90;2329.60;;;;;;4876476;29;20025;-57
2021/09/26 00:03:10;;;;;;;12.63;7.90;;;384.90;2329.60;;;;;;4876549;29;20082;-57
2021/09/26 00:05:36;;;;;;;11.63;7.95;;;384.90;2329.60;;;;;;4876608;29;20376;-56
2021/09/26 00:08:01;;;;;;;9.43;6.90;;;384.90;2329.60;;;;;;4876533;29;20032;-55
2021/09/26 00:10:27;;;;;;;10.93;8.20;;;384.90;2329.60;;;;;;4876533;29;20483;-56
2021/09/26 00:12:53;;;;;;;14.68;7.57;;;384.70;2329.60;;;;;;4876578;29;20104;-55
2021/09/26 00:15:21;;;;;;;11.38;7.57;;;384.90;2329.60;;;;;;4876458;29;20036;-55
2021/09/26 00:17:47;;;;;;;10.57;7.15;;;384.80;2329.60;;;;;;4876281;29;20033;-57
2021/09/26 00:20:14;;;;;;;8.93;6.47;;;384.80;2329.60;;;;;;4876555;29;20025;-57
2021/09/26 00:22:40;;;;;;;9.43;6.85;;;384.70;2329.60;;;;;;4875039;29;20033;-58
2021/09/26 00:25:08;;;;;;;14.93;7.75;;;384.70;2329.60;;;;;;4876486;29;20513;-57
2021/09/26 00:27:34;;;;;;;9.80;7.82;;;384.70;2329.60;;;;;;4876325;29;20028;-58
2021/09/26 00:30:00;;;;;;;14.18;7.82;;;384.70;2329.60;;;;;;4875952;29;20065;-58
2021/09/26 00:32:25;;;;;;;11.10;6.90;;;384.70;2329.60;;;;;;4876392;29;20084;-57
2021/09/26 00:34:51;;;;;;;8.95;7.60;;;384.70;2329.60;;;;;;4875921;29;20025;-55
2021/09/26 00:37:19;;;;;;;12.38;7.53;;;384.70;2329.60;;;;;;4876290;29;20059;-56
2021/09/26 00:39:46;;;;;;;9.65;7.07;;;384.70;2329.60;;;;;;4876363;29;20542;-55
2021/09/26 00:42:11;;;;;;;8.50;7.28;;;384.70;2329.60;;;;;;4875986;29;20025;-56
2021/09/26 00:44:37;;;;;;;12.57;8.00;;;384.60;2329.60;;;;;;4876063;29;20084;-56
2021/09/26 00:47:03;;;;;;;9.35;7.57;;;384.40;2329.60;;;;;;4876169;29;20401;-56
2021/09/26 00:49:29;;;;;;;12.40;8.02;;;384.20;2329.60;;;;;;4876006;29;20123;-55
2021/09/26 00:51:57;;;;;;;14.48;7.57;;;384.00;2329.60;;;;;;4876181;29;20468;-55
2021/09/26 00:54:23;;;;;;;11.52;7.53;;;359.30;2329.60;;;;;;4875970;29;20037;-56
2021/09/26 00:56:49;;;;;;;10.10;6.63;;;384.00;2329.60;;;;;;4875966;29;20029;-55
2021/09/26 00:59:17;;;;;;;10.10;7.57;;;384.10;2329.60;;;;;;4876117;29;20563;-55
2021/09/26 01:01:42;;;;;;;11.70;7.95;;;384.20;2329.60;;;;;;4875937;29;20119;-55
2021/09/26 01:04:09;;;;;;;11.60;8.77;;;384.10;2329.60;;;;;;4875987;29;20112;-56
2021/09/26 01:07:00;;;;;;;12.60;8.00;;;384.00;2329.60;;;;;;4875820;29;20033;-56
2021/09/26 01:09:29;;;;;;;12.00;7.75;;;384.00;2329.60;;;;;;4876156;29;20064;-55
2021/09/26 01:12:18;;;;;;;8.40;7.32;;;359.30;2329.60;;;;;;4876265;29;20032;-56
2021/09/26 01:14:52;;;;;;;10.63;7.90;;;384.00;2329.60;;;;;;4876311;29;20049;-56
2021/09/26 01:17:43;;;;;;;16.45;7.60;;;384.00;2329.60;;;;;;4876067;29;20017;-56
2021/09/26 01:20:15;;;;;;;9.05;6.70;;;384.00;2329.60;;;;;;4879573;29;20392;-55
2021/09/26 01:23:16;;;;;;;17.88;7.78;;;359.30;2329.60;;;;;;4879350;29;20052;-56
2021/09/26 01:26:07;;;;;;;10.88;7.85;;;359.30;2329.60;;;;;;4879810;29;20103;-57
2021/09/26 01:28:56;;;;;;;9.50;7.05;;;359.30;2329.60;;;;;;4879629;29;20025;-55
2021/09/26 01:31:37;;;;;;;9.93;7.50;;;359.30;2329.60;;;;;;4868535;29;20189;-56
2021/09/26 01:34:08;;;;;;;11.30;7.65;;;359.30;2329.60;;;;;;4869967;29;20157;-55
2021/09/26 01:36:43;;;;;;;12.38;7.93;;;359.20;2329.60;;;;;;4869940;29;20029;-56
2021/09/26 01:39:22;;;;;;;11.60;7.95;;;359.20;2329.60;;;;;;4869080;29;20018;-56
2021/09/26 01:42:12;;;;;;;13.02;8.68;;;359.30;2329.60;;;;;;4869535;29;20504;-57
2021/09/26 01:44:45;;;;;;;10.10;7.22;;;359.20;2329.60;;;;;;4869585;29;20075;-56
2021/09/26 01:47:13;;;;;;;11.73;8.07;;;359.20;2329.60;;;;;;4869582;29;20053;-55
2021/09/26 01:49:50;;;;;;;11.07;7.40;;;359.30;2329.60;;;;;;4868179;29;20560;-56
2021/09/26 01:52:20;;;;;;;11.23;7.85;;;359.20;2329.60;;;;;;4870170;29;20109;-55
2021/09/26 01:54:47;;;;;;;9.90;6.95;;;359.20;2329.60;;;;;;4867993;29;20018;-55
2021/09/26 01:57:14;;;;;;;9.15;7.35;;;359.20;2329.60;;;;;;4869602;29;20108;-55
2021/09/26 01:59:40;;;;;;;10.02;7.25;;;359.10;2329.60;;;;;;4867850;29;20162;-55
2021/09/26 02:02:06;;;;;;;10.13;6.93;;;359.10;2329.60;;;;;;4867919;29;20124;-55
2021/09/26 02:04:34;;;;;;;14.45;7.97;;;359.10;2329.60;;;;;;4869271;29;20024;-55
2021/09/26 02:07:00;;;;;;;11.50;8.75;;;359.20;2329.60;;;;;;4867756;29;20030;-55
2021/09/26 02:09:27;;;;;;;11.20;8.40;;;359.20;2329.60;;;;;;4867893;29;20031;-55
2021/09/26 02:11:53;;;;;;;13.20;7.40;;;359.30;2329.60;;;;;;4869318;29;20376;-55
2021/09/26 02:14:20;;;;;;;8.82;6.93;;;359.10;2329.60;;;;;;4867771;29;20032;-55
2021/09/26 02:16:46;;;;;;;10.80;8.73;;;359.20;2329.60;;;;;;4867708;29;20036;-54
2021/09/26 02:19:13;;;;;;;11.85;8.15;;;359.10;2329.60;;;;;;4868924;29;20109;-55
2021/09/26 02:21:41;;;;;;;9.43;7.72;;;359.10;2329.60;;;;;;4867474;29;20480;-55
2021/09/26 02:24:07;;;;;;;10.50;7.35;;;358.90;2329.60;;;;;;4867504;29;20060;-55
2021/09/26 02:26:34;;;;;;;11.05;7.95;;;358.70;2329.60;;;;;;4869028;29;20017;-55
2021/09/26 02:29:01;;;;;;;12.25;7.30;;;358.80;2329.60;;;;;;4867355;29;20026;-55
2021/09/26 02:31:27;;;;;;;10.00;8.30;;;358.90;2329.60;;;;;;4867421;29;20089;-55
2021/09/26 02:33:53;;;;;;;9.38;7.80;;;358.90;2329.60;;;;;;4868675;29;20504;-56
2021/09/26 02:36:20;;;;;;;9.02;6.95;;;358.90;2329.60;;;;;;4866516;29;20120;-56
2021/09/26 02:38:46;;;;;;;11.30;6.82;;;359.00;2329.60;;;;;;4867486;29;20029;-56
2021/09/26 02:41:28;;;;;;;12.40;7.25;;;359.00;2329.60;;;;;;4868725;29;20029;-53
2021/09/26 02:44:20;;;;;;;10.88;7.13;;;359.00;2329.60;;;;;;4868804;29;20559;-55
2021/09/26 02:46:52;;;;;;;8.73;7.05;;;359.00;2329.60;;;;;;4868694;29;20029;-55
2021/09/26 02:49:19;;;;;;;9.50;7.25;;;358.90;2329.60;;;;;;4868417;29;20096;-56
2021/09/26 02:51:45;;;;;;;11.48;7.90;;;358.90;2329.60;;;;;;4871009;29;20036;-56
2021/09/26 02:54:12;;;;;;;9.30;7.50;;;358.90;2329.60;;;;;;4877865;29;20029;-54
2021/09/26 02:56:38;;;;;;;14.25;7.72;;;358.90;2329.60;;;;;;4877801;29;20044;-56
2021/09/26 02:59:04;;;;;;;9.77;7.43;;;358.80;2329.60;;;;;;4878165;29;20429;-56
2021/09/26 03:01:30;;;;;;;9.23;6.95;;;358.80;2329.60;;;;;;4877734;29;20040;-56
2021/09/26 03:04:05;;;;;;;10.52;6.75;;;358.80;2329.60;;;;;;4878202;29;20048;-55
2021/09/26 03:06:32;;;;;;;11.48;7.35;;;358.80;2329.60;;;;;;4877735;29;20040;-57
2021/09/26 03:08:57;;;;;;;8.20;6.68;;;358.70;2329.60;;;;;;4877712;29;20029;-56
2021/09/26 03:11:24;;;;;;;13.07;8.02;;;358.70;2329.60;;;;;;4877837;29;20153;-56
2021/09/26 03:13:50;;;;;;;11.20;7.10;;;358.70;2329.60;;;;;;4877554;29;20452;-54
2021/09/26 03:16:16;;;;;;;12.40;7.25;;;358.70;2329.60;;;;;;4877802;29;20120;-55
2021/09/26 03:18:42;;;;;;;11.00;7.22;;;358.70;2329.60;;;;;;4877514;29;20033;-56
2021/09/26 03:21:07;;;;;;;18.35;8.35;;;358.50;2329.60;;;;;;4860670;29;20041;-55
2021/09/26 03:23:33;;;;;;;10.10;7.72;;;358.50;2329.60;;;;;;4877530;29;20041;-55
2021/09/26 03:25:59;;;;;;;8.93;6.85;;;358.40;2329.60;;;;;;4877329;29;20096;-55
2021/09/26 03:28:24;;;;;;;8.93;6.88;;;358.40;2329.60;;;;;;4877591;29;20033;-55
2021/09/26 03:30:50;;;;;;;12.18;8.23;;;358.50;2329.60;;;;;;4876992;29;20382;-55
2021/09/26 03:33:18;;;;;;;11.80;8.65;;;358.50;2329.60;;;;;;4877703;29;20094;-55
2021/09/26 03:35:43;;;;;;;10.65;7.95;;;358.50;2329.60;;;;;;4877634;29;20412;-56
2021/09/26 03:38:09;;;;;;;12.20;7.28;;;358.50;2329.60;;;;;;4877269;29;20029;-55
2021/09/26 03:40:35;;;;;;;8.50;7.13;;;358.50;2329.60;;;;;;4877190;29;20389;-55
2021/09/26 03:43:01;;;;;;;9.60;7.07;;;358.50;2329.60;;;;;;4876960;29;20097;-54
2021/09/26 03:45:27;;;;;;;9.18;6.82;;;358.60;2329.60;;;;;;4877197;29;20510;-56
2021/09/26 03:47:53;;;;;;;12.55;7.50;;;358.60;2329.60;;;;;;4877301;29;20032;-56
2021/09/26 03:50:19;;;;;;;7.68;6.55;;;358.60;2329.60;;;;;;4876890;29;20037;-56
2021/09/26 03:52:45;;;;;;;10.68;8.02;;;358.60;2329.60;;;;;;4877270;29;20032;-56
2021/09/26 03:55:12;;;;;;;9.07;7.00;;;358.50;2329.60;;;;;;4877003;29;20022;-58
2021/09/26 03:57:39;;;;;;;10.95;8.05;;;358.40;2329.60;;;;;;4876788;29;20029;-58
2021/09/26 04:00:07;;;;;;;10.55;7.50;;;358.50;2329.60;;;;;;4876805;29;20104;-58
2021/09/26 04:02:33;;;;;;;7.93;6.32;;;358.50;2329.60;;;;;;4876782;29;20620;-58
2021/09/26 04:04:59;;;;;;;9.57;7.10;;;358.40;2329.60;;;;;;4876784;29;20104;-56
2021/09/26 04:07:24;;;;;;;10.20;7.38;;;358.50;2329.60;;;;;;4877079;29;20037;-55
2021/09/26 04:09:50;;;;;;;12.10;6.45;;;333.70;2329.60;;;;;;4876509;29;20047;-55
2021/09/26 04:12:17;;;;;;;10.60;7.43;;;333.70;2329.60;;;;;;4876926;29;20029;-54
2021/09/26 04:14:42;;;;;;;8.57;6.88;;;333.70;2329.60;;;;;;4876706;29;20031;-55
2021/09/26 04:17:08;;;;;;;8.98;7.40;;;333.70;2329.60;;;;;;4876651;29;20108;-55
2021/09/26 04:19:34;;;;;;;10.30;6.45;;;333.70;2329.60;;;;;;4876794;29;20025;-55
2021/09/26 04:22:00;;;;;;;12.07;8.45;;;333.70;2329.60;;;;;;4876380;29;20040;-56
2021/09/26 04:24:26;;;;;;;9.05;6.82;;;333.70;2329.60;;;;;;4876845;29;20021;-56
2021/09/26 04:26:51;;;;;;;12.52;8.07;;;333.70;2329.60;;;;;;4876584;29;20112;-56
2021/09/26 04:29:17;;;;;;;9.25;7.25;;;333.70;2329.60;;;;;;4876466;29;20108;-54
2021/09/26 04:31:43;;;;;;;9.48;7.03;;;333.60;2329.60;;;;;;4876443;29;20508;-56
2021/09/26 04:34:09;;;;;;;14.73;7.03;;;333.70;2329.60;;;;;;4876350;29;20483;-55
2021/09/26 04:36:35;;;;;;;16.35;7.03;;;333.70;2329.60;;;;;;4876671;29;20025;-55
2021/09/26 04:39:01;;;;;;;12.25;7.60;;;358.40;2329.60;;;;;;4876118;29;20358;-55
2021/09/26 04:41:26;;;;;;;11.73;8.25;;;358.40;2329.60;;;;;;4876397;29;20033;-55
2021/09/26 04:43:52;;;;;;;10.55;7.43;;;358.40;2329.60;;;;;;4876535;29;20037;-55
2021/09/26 04:46:18;;;;;;;8.55;6.40;;;358.50;2329.60;;;;;;4876109;29;20036;-57
2021/09/26 04:48:43;;;;;;;8.13;6.68;;;358.40;2329.60;;;;;;4876504;29;20041;-54
2021/09/26 04:51:09;;;;;;;12.50;7.00;;;358.50;2329.60;;;;;;4859228;29;20029;-55
2021/09/26 04:53:35;;;;;;;11.48;7.28;;;358.60;2329.60;;;;;;4877683;29;20491;-55
2021/09/26 04:56:01;;;;;;;8.02;6.20;;;358.70;2329.60;;;;;;4879879;29;20032;-55
2021/09/26 04:58:28;;;;;;;8.95;7.22;;;358.70;2329.60;;;;;;4880101;29;20581;-55
2021/09/26 05:00:54;;;;;;;9.50;6.25;;;358.80;2329.60;;;;;;4880062;29;20036;-57
2021/09/26 05:03:20;;;;;;;12.18;6.63;;;358.80;2329.60;;;;;;4879723;29;20092;-57
2021/09/26 05:05:46;;;;;;;8.93;6.70;;;358.90;2329.60;;;;;;4880081;29;20125;-57
2021/09/26 05:08:12;;;;;;;9.95;7.30;;;359.00;2329.60;;;;;;4879939;29;20085;-56
2021/09/26 05:10:37;;;;;;;7.65;5.95;;;359.10;2329.60;;;;;;4879572;29;20112;-55
2021/09/26 05:13:03;;;;;;;11.60;6.68;;;359.10;2329.60;;;;;;4880107;29;20468;-55
2021/09/26 05:15:29;;;;;;;12.77;6.70;;;359.10;2329.60;;;;;;4879562;29;20111;-56
2021/09/26 05:17:56;;;;;;;15.65;6.88;;;359.20;2329.60;;;;;;4879900;29;20112;-55
2021/09/26 05:20:22;;;;;;;7.53;5.80;;;359.30;2329.60;;;;;;4879792;29;20032;-56
2021/09/26 05:22:48;;;;;;;9.20;6.88;;;359.30;2329.60;;;;;;4879489;29;20037;-57
2021/09/26 05:25:15;;;;;;;8.50;6.03;;;359.30;2329.60;;;;;;4879644;29;20056;-55
2021/09/26 05:27:41;;;;;;;8.43;5.90;;;359.30;2329.60;;;;;;4879500;29;20040;-55
2021/09/26 05:30:08;;;;;;;8.75;6.10;;;384.10;2329.60;;;;;;4879157;29;20076;-56
2021/09/26 05:32:36;;;;;;;7.22;6.28;;;384.20;2329.60;;;;;;4879562;29;20104;-55
2021/09/26 05:35:01;;;;;;;8.73;6.07;;;384.30;2329.60;;;;;;4879319;29;20036;-56
2021/09/26 05:37:27;;;;;;;13.95;6.70;;;384.30;2329.60;;;;;;4879487;29;20388;-57
2021/09/26 05:39:53;;;;;;;9.98;6.45;;;384.50;2329.60;;;;;;4879450;29;20029;-57
2021/09/26 05:42:19;;;;;;;9.13;6.03;;;384.50;2329.60;;;;;;4879233;29;20044;-56
2021/09/26 05:44:44;;;;;;;73.00;52.65;;;384.50;2329.60;;;;;;4879392;29;20028;-58
2021/09/26 05:47:14;;;;;;;15.05;11.25;;;384.40;2329.60;;;;;;4879212;29;20395;-57
2021/09/26 05:49:40;;;;;;;14.50;11.20;;;384.40;2329.60;;;;;;4861594;29;20441;-56
2021/09/26 05:52:08;;;;;;;21.00;13.05;;;384.50;2329.60;;;;;;4879248;29;20037;-56
2021/09/26 05:54:35;;;;;;;36.15;23.83;;;384.50;2329.60;;;;;;4879032;29;20039;-55
2021/09/26 05:57:00;;;;;;;20.17;13.07;;;384.70;2329.60;;;;;;4878864;29;20391;-56
2021/09/26 05:59:26;;;;;;;13.68;9.43;;;461.50;2380.80;;;;;;4878979;29;20029;-56
2021/09/26 06:01:52;;;;;;;9.55;8.52;;;538.00;2406.40;;;;;;4878858;29;20095;-56
2021/09/26 06:04:18;;;;;;;13.70;9.77;;;589.50;2432.00;;;;;;4878380;29;20429;-56
2021/09/26 06:06:44;;;;;;;12.07;7.30;;;640.20;2432.00;;;;;;4878952;29;20032;-56
2021/09/26 06:09:10;;;;;;;8.80;7.30;;;666.00;2278.40;;;;;;4879004;29;20032;-57
2021/09/26 06:11:35;;;;;;;7.55;6.72;;;691.70;2099.20;;;;;;4878730;29;20022;-60
2021/09/26 06:14:01;;;;;;;8.18;7.47;;;691.80;2022.40;;;;;;4878680;29;20029;-59
2021/09/26 06:16:27;;;;;;;7.80;6.97;;;691.90;1996.80;;;;;;4878290;29;20180;-58
2021/09/26 06:18:53;;;;;;;8.30;7.50;;;691.90;1971.20;;;;;;4878415;29;20029;-59
2021/09/26 06:21:18;;;;;;;8.68;7.80;;;691.90;1971.20;;;;;;4878022;29;20092;-59
2021/09/26 06:23:44;;;;;;;9.60;8.70;;;717.10;1920.00;;;;;;4878223;29;20177;-56
2021/09/26 06:26:10;;;;;;;10.45;9.48;;;742.90;1868.80;;;;;;4877880;29;20076;-55
2021/09/26 06:28:36;;;;;;;12.40;9.73;;;743.10;1817.60;;;;;;4878317;29;20081;-58
2021/09/26 06:31:01;;;;;;;10.50;9.73;;;768.90;1715.20;;;;;;4879299;29;20049;-58
2021/09/26 06:33:27;;;;;;;11.43;10.43;;;819.60;1612.80;;;;;;4881523;29;20033;-57
2021/09/26 06:35:53;;;;;;;11.60;10.60;;;844.80;1561.60;;;;;;4881324;29;20122;-56
2021/09/26 06:38:19;;;;;;;12.75;11.75;;;820.10;1536.00;;;;;;4881810;29;20025;-60
2021/09/26 06:40:45;;;;;;;10.98;10.18;;;820.10;1510.40;;;;;;4881296;29;20460;-58
2021/09/26 06:43:12;;;;;;;13.02;11.80;;;844.90;1536.00;;;;;;4880931;29;20097;-60
2021/09/26 06:45:38;;;;;;;15.65;14.10;;;845.10;1510.40;;;;;;4881045;29;20077;-60
2021/09/26 06:48:04;;;;;;;14.43;13.35;;;870.50;1433.60;;;;;;4881191;29;20396;-62
2021/09/26 06:50:30;;;;;;;14.93;11.75;;;870.90;1408.00;;;;;;4863984;29;20120;-59
2021/09/26 06:52:56;;;;;;;13.80;12.77;;;896.50;1305.60;;;;;;4881347;29;20120;-61
2021/09/26 06:55:21;;;;;;;13.52;12.60;;;870.90;1356.80;;;;;;4881172;29;20031;-62
2021/09/26 06:57:47;;;;;;;13.48;12.68;;;870.80;1356.80;;;;;;4880914;29;20089;-57
2021/09/26 07:00:13;;;;;;;12.52;11.73;;;896.50;1305.60;;;;;;4880741;29;20037;-61
2021/09/26 07:02:40;;;;;;;14.05;13.15;;;896.90;1280.00;;;;;;4864218;29;20408;-62
2021/09/26 07:05:07;;;;;;;14.13;13.02;;;947.30;1254.40;;;;;;4880803;29;20040;-61
2021/09/26 07:07:32;;;;;;;14.15;13.15;;;947.80;1254.40;;;;;;4863783;29;20041;-63
2021/09/26 07:09:58;;;;;;;13.07;12.05;;;948.10;1203.20;;;;;;4880968;29;20025;-62
2021/09/26 07:12:24;;;;;;;13.00;11.95;;;948.00;1203.20;;;;;;4880750;29;20033;-63
2021/09/26 07:14:51;;;;;;;14.85;13.32;;;947.90;1203.20;;;;;;4880631;29;20032;-62
2021/09/26 07:17:20;;;;;;;14.13;12.77;;;922.50;1228.80;;;;;;4879802;29;20124;-60
2021/09/26 07:19:46;;;;;;;14.52;13.52;;;921.80;1280.00;;;;;;4880479;29;20123;-63
2021/09/26 07:22:12;;;;;;;13.10;12.05;;;947.40;1203.20;;;;;;4880715;29;20052;-62
2021/09/26 07:24:37;;;;;;;13.20;12.07;;;947.20;1228.80;;;;;;4880383;29;20387;-59
2021/09/26 07:27:03;;;;;;;12.32;11.48;;;896.90;1228.80;;;;;;4880673;29;20044;-57
2021/09/26 07:29:29;;;;;;;12.82;11.93;;;896.40;1254.40;;;;;;4880493;29;20097;-58
2021/09/26 07:31:55;;;;;;;12.43;11.55;;;896.10;1254.40;;;;;;4880186;29;20124;-58
2021/09/26 07:34:20;;;;;;;11.85;11.05;;;896.10;1228.80;;;;;;4880600;29;20039;-58
2021/09/26 07:36:46;;;;;;;12.82;11.77;;;896.40;1203.20;;;;;;4880585;29;20029;-58
2021/09/26 07:39:12;;;;;;;12.98;11.95;;;922.30;1177.60;;;;;;4880605;29;20029;-63
2021/09/26 07:45:03;;;;;;;12.70;11.65;;;922.00;1177.60;;;;;;4880249;29;20543;-64
2021/09/26 07:47:30;;;;;;;13.27;12.18;;;947.40;1152.00;;;;;;4880181;29;20094;-63
2021/09/26 07:49:56;;;;;;;11.55;10.65;;;947.90;1177.60;;;;;;4879943;29;20369;-62
2021/09/26 07:52:23;;;;;;;12.27;11.27;;;947.40;1152.00;;;;;;4880090;29;20025;-58
2021/09/26 07:54:50;;;;;;;12.23;11.25;;;947.20;1177.60;;;;;;4879962;29;20036;-58
2021/09/26 07:57:19;;;;;;;12.90;11.52;;;948.00;1126.40;;;;;;4879703;29;20036;-59
2021/09/26 07:59:46;;;;;;;12.35;11.20;;;972.80;1100.80;;;;;;4879840;29;20061;-59
2021/09/26 08:02:12;;;;;;;11.30;10.40;;;947.60;1152.00;;;;;;4879853;29;20041;-59
2021/09/26 08:04:38;;;;;;;12.35;11.32;;;973.40;1100.80;;;;;;4879547;29;20484;-59
2021/09/26 08:07:05;;;;;;;12.50;11.50;;;973.00;1126.40;;;;;;4879908;29;20053;-58
2021/09/26 08:09:31;;;;;;;11.43;10.43;;;948.10;1126.40;;;;;;4879532;29;20515;-60
2021/09/26 08:15:20;;;;;;;11.68;10.68;;;922.50;1126.40;;;;;;4879501;29;20036;-58
2021/09/26 08:17:46;;;;;;;10.82;9.82;;;922.30;1126.40;;;;;;4879414;29;20353;-59
2021/09/26 08:20:13;;;;;;;10.40;9.43;;;947.30;1152.00;;;;;;4879525;29;20029;-57
2021/09/26 08:22:39;;;;;;;9.88;9.07;;;947.70;1126.40;;;;;;4879477;29;20056;-58
2021/09/26 08:25:06;;;;;;;9.82;8.93;;;973.50;1075.20;;;;;;4879588;29;20365;-58
2021/09/26 08:27:33;;;;;;;11.40;10.23;;;948.10;1100.80;;;;;;4879619;29;20085;-59
2021/09/26 08:29:59;;;;;;;10.57;9.75;;;973.30;1100.80;;;;;;4879074;29;20074;-59
2021/09/26 08:32:25;;;;;;;10.77;9.52;;;972.80;1100.80;;;;;;4879410;29;20037;-58
2021/09/26 08:34:51;;;;;;;11.82;8.63;;;973.20;1100.80;;;;;;4879452;29;20029;-58
2021/09/26 08:37:17;;;;;;;10.88;10.07;;;948.10;1100.80;;;;;;4879223;29;20499;-58
2021/09/26 08:39:42;;;;;;;10.88;10.07;;;973.20;1075.20;;;;;;4879557;29;20036;-58
2021/09/26 08:45:36;;;;;;;10.85;9.80;;;973.40;1075.20;;;;;;4879534;29;20081;-58
2021/09/26 08:48:02;;;;;;;11.38;10.38;;;948.00;1100.80;;;;;;4879181;29;20033;-58
2021/09/26 08:50:29;;;;;;;10.52;9.73;;;973.30;1075.20;;;;;;4879274;29;20040;-58
2021/09/26 08:52:55;;;;;;;11.13;10.02;;;948.10;1100.80;;;;;;4879294;29;20032;-60
2021/09/26 08:55:21;;;;;;;9.68;8.88;;;947.30;1126.40;;;;;;4878899;29;20338;-63
2021/09/26 08:57:47;;;;;;;9.77;8.77;;;922.20;1152.00;;;;;;4878927;29;20045;-56
2021/09/26 09:00:15;;;;;;;8.65;7.82;;;896.50;1177.60;;;;;;4878602;29;20086;-54
2021/09/26 09:02:42;;;;;;;7.82;7.03;;;845.10;1254.40;;;;;;4878952;29;20045;-51
2021/09/26 09:05:26;;;;;;;7.70;6.82;;;819.60;1305.60;;;;;;4879010;29;20479;-53
2021/09/26 09:08:12;;;;;;;7.43;6.45;;;794.50;1305.60;;;;;;4879025;29;20021;-52
2021/09/26 09:10:42;;;;;;;9.73;6.70;;;794.00;1331.20;;;;;;4878934;29;20120;-55
2021/09/26 09:13:11;;;;;;;9.80;7.18;;;794.00;1331.20;;;;;;4878816;29;20028;-52
2021/09/26 09:15:38;;;;;;;10.75;6.20;;;793.70;1356.80;;;;;;4878788;29;20037;-53
2021/09/26 09:18:04;;;;;;;7.13;5.95;;;768.20;1382.40;;;;;;4878886;29;20124;-52
2021/09/26 09:20:32;;;;;;;9.00;6.53;;;743.30;1382.40;;;;;;4878792;29;20465;-51
2021/09/26 09:23:14;;;;;;;7.53;6.75;;;743.00;1382.40;;;;;;4878950;29;20041;-52
2021/09/26 09:25:50;;;;;;;7.35;6.10;;;742.80;1433.60;;;;;;4878904;29;20029;-52
2021/09/26 09:28:20;;;;;;;7.22;6.38;;;742.70;1433.60;;;;;;4878696;29;20425;-52
2021/09/26 09:30:47;;;;;;;7.15;6.45;;;743.10;1408.00;;;;;;4878473;29;20053;-52
2021/09/26 09:33:25;;;;;;;10.57;6.80;;;743.20;1382.40;;;;;;4878671;29;20373;-51
2021/09/26 09:35:53;;;;;;;12.02;6.88;;;743.20;1408.00;;;;;;4878632;29;20092;-51
2021/09/26 09:38:29;;;;;;;7.57;6.68;;;743.00;1408.00;;;;;;4878848;29;20040;-50
2021/09/26 09:40:56;;;;;;;6.93;6.22;;;742.90;1408.00;;;;;;4881736;29;20029;-51
2021/09/26 09:43:23;;;;;;;10.23;7.13;;;743.20;1408.00;;;;;;4882551;29;20395;-51
2021/09/26 09:45:57;;;;;;;10.52;9.30;;;768.10;1433.60;;;;;;4881857;29;20472;-54
2021/09/26 09:48:29;;;;;;;17.48;12.95;;;768.10;1408.00;;;;;;4881952;29;20040;-50
2021/09/26 09:51:04;;;;;;;21.80;17.70;;;743.30;1408.00;;;;;;4882327;29;20468;-51
2021/09/26 09:53:33;;;;;;;41.70;37.35;;;743.00;1433.60;;;;;;4869180;29;20029;-52
2021/09/26 09:56:12;;;;;;;8.27;7.35;;;742.90;1433.60;;;;;;4867526;29;20025;-50
2021/09/26 09:58:43;;;;;;;9.85;7.32;;;742.40;1459.20;;;;;;4872603;29;20368;-58
2021/09/26 10:01:13;;;;;;;10.38;6.88;;;742.80;1459.20;;;;;;4874602;29;20028;-54
2021/09/26 10:03:47;;;;;;;9.73;7.80;;;742.70;1459.20;;;;;;4875443;29;20124;-50
2021/09/26 10:06:32;;;;;;;40.30;35.78;;;742.60;1433.60;;;;;;4874254;29;20085;-56
2021/09/26 10:09:19;;;;;;;15.40;6.85;;;742.90;1459.20;;;;;;4874271;29;20387;-57
2021/09/26 10:11:46;;;;;;;7.60;6.47;;;742.60;1459.20;;;;;;4874738;29;20038;-56
2021/09/26 10:14:12;;;;;;;8.43;6.57;;;742.40;1484.80;;;;;;4872986;29;20030;-51
2021/09/26 10:16:38;;;;;;;8.32;6.05;;;742.40;1484.80;;;;;;4869059;29;20029;-53
2021/09/26 10:19:04;;;;;;;10.68;6.80;;;742.50;1484.80;;;;;;4867526;29;20385;-53
2021/09/26 10:21:30;;;;;;;9.35;7.15;;;742.90;1459.20;;;;;;4868496;29;20073;-52
2021/09/26 10:23:56;;;;;;;6.72;5.97;;;742.60;1459.20;;;;;;4859436;29;20072;-53
2021/09/26 10:26:26;;;;;;;7.65;6.80;;;742.50;1484.80;;;;;;4857707;29;20045;-52
2021/09/26 10:28:57;;;;;;;9.27;7.13;;;742.50;1510.40;;;;;;4862892;29;20026;-50
2021/09/26 10:31:25;;;;;;;9.73;6.57;;;742.40;1484.80;;;;;;4865245;29;20648;-51
2021/09/26 10:33:54;;;;;;;7.32;6.28;;;717.60;1459.20;;;;;;4866689;29;20033;-51
2021/09/26 10:36:22;;;;;;;8.30;7.22;;;717.50;1484.80;;;;;;4867054;29;20033;-51
2021/09/26 10:38:50;;;;;;;8.20;6.72;;;742.50;1484.80;;;;;;4864293;29;20028;-53
2021/09/26 10:41:17;;;;;;;6.68;6.05;;;742.40;1484.80;;;;;;4866400;29;20077;-51
2021/09/26 10:43:43;;;;;;;6.60;5.93;;;742.60;1484.80;;;;;;4865146;29;20038;-51
2021/09/26 10:46:27;;;;;;;6.85;6.10;;;742.70;1484.80;;;;;;4861892;29;20036;-52
2021/09/26 10:48:56;;;;;;;7.35;6.65;;;742.70;1459.20;;;;;;4867975;29;20571;-53
2021/09/26 10:51:42;;;;;;;8.77;6.82;;;742.60;1484.80;;;;;;4863420;29;20041;-54
2021/09/26 10:54:23;;;;;;;8.02;6.28;;;742.80;1484.80;;;;;;4867176;29;20041;-61
2021/09/26 10:57:10;;;;;;;8.75;5.95;;;742.40;1484.80;;;;;;4866548;29;20029;-55
2021/09/26 10:59:45;;;;;;;9.10;6.93;;;742.50;1484.80;;;;;;4854354;29;20037;-54
2021/09/26 11:02:23;;;;;;;23.52;21.08;;;742.50;1484.80;;;;;;4857677;29;20037;-53
2021/09/26 11:04:51;;;;;;;62.90;56.35;;;742.50;1484.80;;;;;;4857470;29;20033;-51
2021/09/26 11:07:21;;;;;;;23.42;16.38;;;742.50;1484.80;;;;;;4857824;29;20040;-52
2021/09/26 11:10:01;;;;;;;8.35;6.28;;;742.60;1510.40;;;;;;4857796;29;20077;-53
2021/09/26 11:12:48;;;;;;;9.77;6.68;;;742.40;1484.80;;;;;;4857566;29;20034;-54
2021/09/26 11:15:19;;;;;;;8.90;7.00;;;742.50;1510.40;;;;;;4865346;29;20041;-57
2021/09/26 11:17:47;;;;;;;8.13;6.65;;;742.50;1459.20;;;;;;4866122;29;20021;-52
2021/09/26 11:20:25;;;;;;;7.88;6.03;;;742.50;1484.80;;;;;;4867521;29;20038;-54
2021/09/26 11:23:06;;;;;;;7.05;6.00;;;742.70;1510.40;;;;;;4864568;29;20068;-54
2021/09/26 11:25:57;;;;;;;6.35;5.72;;;742.90;1510.40;;;;;;4864656;29;20029;-55
2021/09/26 11:28:35;;;;;;;7.00;6.10;;;743.00;1484.80;;;;;;4860546;29;20108;-55
2021/09/26 11:31:09;;;;;;;7.28;5.60;;;742.70;1484.80;;;;;;4865686;29;20060;-61
2021/09/26 11:33:58;;;;;;;7.00;6.05;;;742.70;1459.20;;;;;;4863335;29;20030;-55
2021/09/26 11:36:27;;;;;;;7.53;5.60;;;742.60;1459.20;;;;;;4867361;29;20029;-52
2021/09/26 11:38:54;;;;;;;8.35;6.85;;;742.60;1459.20;;;;;;4863324;29;20182;-54
2021/09/26 11:41:40;;;;;;;9.48;6.45;;;742.80;1484.80;;;;;;4861268;29;20112;-62
2021/09/26 11:44:08;;;;;;;8.30;6.25;;;743.10;1484.80;;;;;;4865968;29;20583;-52
2021/09/26 11:46:35;;;;;;;7.85;6.30;;;743.30;1484.80;;;;;;4866063;29;20499;-52
2021/09/26 11:49:09;;;;;;;6.72;5.25;;;743.30;1459.20;;;;;;4870357;29;20064;-56
2021/09/26 11:51:36;;;;;;;7.60;6.38;;;743.20;1459.20;;;;;;4872915;29;20029;-57
2021/09/26 11:54:04;;;;;;;6.25;5.05;;;743.00;1433.60;;;;;;4875281;29;20025;-53
2021/09/26 11:56:32;;;;;;;5.70;4.90;;;743.00;1433.60;;;;;;4875423;29;20036;-53
2021/09/26 11:59:06;;;;;;;6.28;5.07;;;742.90;1433.60;;;;;;4874503;29;20025;-53
2021/09/26 12:01:37;;;;;;;5.90;5.28;;;743.00;1433.60;;;;;;4874861;29;20174;-52
2021/09/26 12:04:14;;;;;;;6.65;5.22;;;743.00;1408.00;;;;;;4876176;29;20041;-51
2021/09/26 12:06:43;;;;;;;6.40;5.55;;;743.00;1433.60;;;;;;4865391;29;20030;-53
2021/09/26 12:09:09;;;;;;;6.65;5.15;;;743.10;1408.00;;;;;;4863116;29;20170;-55
2021/09/26 12:11:48;;;;;;;9.10;4.80;;;743.20;1433.60;;;;;;4867589;29;20108;-53
2021/09/26 12:14:22;;;;;;;8.30;5.47;;;743.00;1433.60;;;;;;4876452;29;20082;-54
2021/09/26 12:16:47;;;;;;;6.35;5.28;;;743.00;1433.60;;;;;;4876041;29;20100;-53
2021/09/26 12:19:13;;;;;;;6.53;4.95;;;742.90;1459.20;;;;;;4876277;29;20493;-52
2021/09/26 12:21:39;;;;;;;5.38;4.60;;;743.10;1433.60;;;;;;4875879;29;20036;-54
2021/09/26 12:24:08;;;;;;;6.35;4.82;;;742.90;1433.60;;;;;;4871613;29;20132;-53
2021/09/26 12:26:41;;;;;;;5.80;4.70;;;743.00;1433.60;;;;;;4871003;29;20484;-49
2021/09/26 12:29:09;;;;;;;;;;;742.90;1433.60;;;;;;4870332;29;20033;-53